sensor_id;sensor_type;location;lat;lon;timestamp;pressure;altitude;pressure_sealevel;temperature;humidity
19761;BME280;10039;42.632;23.408;2023-04-19T00:02:05;94544.53;;;11.86;68.78
19761;BME280;10039;42.632;23.408;2023-04-19T00:04:33;94561.22;;;11.90;68.15
19761;BME280;10039;42.632;23.408;2023-04-19T00:06:59;94565.91;;;12.11;68.19
19761;BME280;10039;42.632;23.408;2023-04-19T00:09:24;94570.28;;;12.05;68.55
19761;BME280;10039;42.632;23.408;2023-04-19T00:11:51;94556.19;;;12.05;68.70
19761;BME280;10039;42.632;23.408;2023-04-19T00:14:17;94562.06;;;12.12;68.62
19761;BME280;10039;42.632;23.408;2023-04-19T00:16:42;94575.41;;;12.25;68.52
19761;BME280;10039;42.632;23.408;2023-04-19T00:19:08;94560.97;;;11.97;68.79
19761;BME280;10039;42.632;23.408;2023-04-19T00:21:34;94534.16;;;11.88;68.48
19761;BME280;10039;42.632;23.408;2023-04-19T00:24:01;94539.50;;;11.88;68.42
19761;BME280;10039;42.632;23.408;2023-04-19T00:26:27;94546.22;;;12.05;68.84
19761;BME280;10039;42.632;23.408;2023-04-19T00:28:53;94560.03;;;12.04;68.22
19761;BME280;10039;42.632;23.408;2023-04-19T00:31:19;94547.06;;;12.02;68.58
19761;BME280;10039;42.632;23.408;2023-04-19T00:33:44;94560.22;;;12.22;68.53
19761;BME280;10039;42.632;23.408;2023-04-19T00:36:10;94563.22;;;12.11;68.26
19761;BME280;10039;42.632;23.408;2023-04-19T00:38:35;94562.69;;;12.16;68.26
19761;BME280;10039;42.632;23.408;2023-04-19T00:41:04;94529.75;;;12.07;68.54
19761;BME280;10039;42.632;23.408;2023-04-19T00:43:31;94509.78;;;11.86;68.93
19761;BME280;10039;42.632;23.408;2023-04-19T00:45:57;94510.84;;;11.89;68.64
19761;BME280;10039;42.632;23.408;2023-04-19T00:48:23;94538.97;;;11.93;69.52
19761;BME280;10039;42.632;23.408;2023-04-19T00:50:49;94509.66;;;11.77;69.29
19761;BME280;10039;42.632;23.408;2023-04-19T00:53:15;94514.28;;;11.77;69.33
19761;BME280;10039;42.632;23.408;2023-04-19T00:55:41;94526.03;;;11.79;69.51
19761;BME280;10039;42.632;23.408;2023-04-19T00:58:08;94535.34;;;11.87;70.17
19761;BME280;10039;42.632;23.408;2023-04-19T01:00:34;94538.97;;;11.93;69.90
19761;BME280;10039;42.632;23.408;2023-04-19T01:03:01;94547.63;;;12.10;69.88
19761;BME280;10039;42.632;23.408;2023-04-19T01:05:26;94540.66;;;12.12;69.33
19761;BME280;10039;42.632;23.408;2023-04-19T01:07:52;94542.88;;;12.14;69.28
19761;BME280;10039;42.632;23.408;2023-04-19T01:10:18;94500.91;;;11.89;68.61
19761;BME280;10039;42.632;23.408;2023-04-19T01:12:44;94538.72;;;12.00;68.77
19761;BME280;10039;42.632;23.408;2023-04-19T01:15:10;94533.28;;;12.04;68.32
19761;BME280;10039;42.632;23.408;2023-04-19T01:17:36;94506.13;;;11.80;68.54
19761;BME280;10039;42.632;23.408;2023-04-19T01:20:03;94553.16;;;12.15;68.83
19761;BME280;10039;42.632;23.408;2023-04-19T01:22:31;94531.66;;;12.06;68.17
19761;BME280;10039;42.632;23.408;2023-04-19T01:24:57;94546.44;;;12.11;68.26
19761;BME280;10039;42.632;23.408;2023-04-19T01:27:23;94522.03;;;11.96;68.46
19761;BME280;10039;42.632;23.408;2023-04-19T01:29:49;94524.53;;;11.91;68.29
19761;BME280;10039;42.632;23.408;2023-04-19T01:32:15;94508.81;;;11.80;67.91
19761;BME280;10039;42.632;23.408;2023-04-19T01:34:41;94510.81;;;12.01;67.95
19761;BME280;10039;42.632;23.408;2023-04-19T01:37:07;94513.41;;;11.92;68.13
19761;BME280;10039;42.632;23.408;2023-04-19T01:39:33;94501.25;;;11.79;67.95
19761;BME280;10039;42.632;23.408;2023-04-19T01:42:06;94506.59;;;11.79;68.53
19761;BME280;10039;42.632;23.408;2023-04-19T01:44:32;94533.50;;;12.09;68.25
19761;BME280;10039;42.632;23.408;2023-04-19T01:46:59;94540.34;;;12.10;68.24
19761;BME280;10039;42.632;23.408;2023-04-19T01:49:25;94534.88;;;12.01;68.22
19761;BME280;10039;42.632;23.408;2023-04-19T01:51:50;94500.69;;;11.71;68.25
19761;BME280;10039;42.632;23.408;2023-04-19T01:54:16;94480.16;;;11.56;68.93
19761;BME280;10039;42.632;23.408;2023-04-19T01:56:42;94517.03;;;11.86;68.79
19761;BME280;10039;42.632;23.408;2023-04-19T01:59:08;94528.28;;;11.93;68.86
19761;BME280;10039;42.632;23.408;2023-04-19T02:01:33;94541.00;;;12.02;68.83
19761;BME280;10039;42.632;23.408;2023-04-19T02:03:59;94498.84;;;11.81;68.57
19761;BME280;10039;42.632;23.408;2023-04-19T02:06:26;94495.34;;;11.71;68.87
19761;BME280;10039;42.632;23.408;2023-04-19T02:08:52;94481.25;;;11.58;68.69
19761;BME280;10039;42.632;23.408;2023-04-19T02:11:18;94521.31;;;11.83;68.94
19761;BME280;10039;42.632;23.408;2023-04-19T02:13:44;94498.47;;;11.57;69.53
19761;BME280;10039;42.632;23.408;2023-04-19T02:16:10;94527.53;;;11.80;69.76
19761;BME280;10039;42.632;23.408;2023-04-19T02:18:36;94530.00;;;11.87;69.66
19761;BME280;10039;42.632;23.408;2023-04-19T02:21:05;94486.34;;;11.65;69.45
19761;BME280;10039;42.632;23.408;2023-04-19T02:23:31;94526.56;;;11.74;69.85
19761;BME280;10039;42.632;23.408;2023-04-19T02:25:57;94531.38;;;11.79;69.71
19761;BME280;10039;42.632;23.408;2023-04-19T02:28:22;94532.88;;;11.80;69.46
19761;BME280;10039;42.632;23.408;2023-04-19T02:30:48;94546.97;;;11.68;70.13
19761;BME280;10039;42.632;23.408;2023-04-19T02:33:14;94536.72;;;11.67;70.34
19761;BME280;10039;42.632;23.408;2023-04-19T02:35:40;94531.47;;;11.63;70.30
19761;BME280;10039;42.632;23.408;2023-04-19T02:38:06;94487.28;;;11.21;70.34
19761;BME280;10039;42.632;23.408;2023-04-19T02:40:38;94506.66;;;11.25;70.89
19761;BME280;10039;42.632;23.408;2023-04-19T02:43:13;94482.47;;;11.16;70.75
19761;BME280;10039;42.632;23.408;2023-04-19T02:45:51;94492.19;;;11.11;71.20
19761;BME280;10039;42.632;23.408;2023-04-19T02:48:23;94494.88;;;11.23;71.14
19761;BME280;10039;42.632;23.408;2023-04-19T02:50:56;94532.06;;;11.42;71.19
19761;BME280;10039;42.632;23.408;2023-04-19T02:53:29;94528.53;;;11.33;71.09
19761;BME280;10039;42.632;23.408;2023-04-19T02:55:55;94511.75;;;11.32;71.85
19761;BME280;10039;42.632;23.408;2023-04-19T02:58:30;94489.09;;;11.12;71.14
19761;BME280;10039;42.632;23.408;2023-04-19T03:00:58;94500.66;;;11.21;71.83
19761;BME280;10039;42.632;23.408;2023-04-19T03:03:27;94488.22;;;11.03;72.10
19761;BME280;10039;42.632;23.408;2023-04-19T03:05:53;94525.56;;;11.43;71.94
19761;BME280;10039;42.632;23.408;2023-04-19T03:08:19;94489.44;;;11.26;71.38
19761;BME280;10039;42.632;23.408;2023-04-19T03:10:45;94476.47;;;11.13;71.68
19761;BME280;10039;42.632;23.408;2023-04-19T03:13:11;94521.50;;;11.39;71.77
19761;BME280;10039;42.632;23.408;2023-04-19T03:15:36;94529.00;;;11.44;71.58
19761;BME280;10039;42.632;23.408;2023-04-19T03:18:02;94506.19;;;11.14;71.23
19761;BME280;10039;42.632;23.408;2023-04-19T03:20:30;94494.84;;;11.11;71.55
19761;BME280;10039;42.632;23.408;2023-04-19T03:23:03;94481.16;;;10.96;71.45
19761;BME280;10039;42.632;23.408;2023-04-19T03:25:31;94530.44;;;11.20;71.99
19761;BME280;10039;42.632;23.408;2023-04-19T03:28:08;94479.63;;;10.83;71.54
19761;BME280;10039;42.632;23.408;2023-04-19T03:30:39;94511.06;;;11.04;72.05
19761;BME280;10039;42.632;23.408;2023-04-19T03:33:05;94503.59;;;10.99;72.31
19761;BME280;10039;42.632;23.408;2023-04-19T03:35:42;94489.56;;;10.82;72.15
19761;BME280;10039;42.632;23.408;2023-04-19T03:38:08;94477.41;;;10.81;71.94
19761;BME280;10039;42.632;23.408;2023-04-19T03:40:36;94491.69;;;10.87;72.30
19761;BME280;10039;42.632;23.408;2023-04-19T03:43:03;94524.22;;;11.11;72.07
19761;BME280;10039;42.632;23.408;2023-04-19T03:45:29;94498.16;;;11.02;71.80
19761;BME280;10039;42.632;23.408;2023-04-19T03:47:55;94484.69;;;10.93;71.75
19761;BME280;10039;42.632;23.408;2023-04-19T03:50:21;94485.47;;;11.06;71.53
19761;BME280;10039;42.632;23.408;2023-04-19T03:52:56;94479.34;;;10.93;71.49
19761;BME280;10039;42.632;23.408;2023-04-19T03:55:25;94508.66;;;11.21;70.69
19761;BME280;10039;42.632;23.408;2023-04-19T03:57:51;94488.66;;;11.01;70.71
19761;BME280;10039;42.632;23.408;2023-04-19T04:00:20;94474.75;;;10.94;71.11
19761;BME280;10039;42.632;23.408;2023-04-19T04:02:48;94523.31;;;11.29;70.55
19761;BME280;10039;42.632;23.408;2023-04-19T04:05:16;94499.75;;;11.00;70.72
19761;BME280;10039;42.632;23.408;2023-04-19T04:07:42;94538.88;;;11.18;70.62
19761;BME280;10039;42.632;23.408;2023-04-19T04:10:08;94511.69;;;10.95;71.11
19761;BME280;10039;42.632;23.408;2023-04-19T04:12:34;94482.63;;;10.85;70.70
19761;BME280;10039;42.632;23.408;2023-04-19T04:15:02;94487.78;;;10.92;70.94
19761;BME280;10039;42.632;23.408;2023-04-19T04:17:31;94478.47;;;10.84;70.80
19761;BME280;10039;42.632;23.408;2023-04-19T04:19:57;94506.56;;;11.01;70.93
19761;BME280;10039;42.632;23.408;2023-04-19T04:22:29;94521.31;;;10.93;71.04
19761;BME280;10039;42.632;23.408;2023-04-19T04:24:56;94514.84;;;11.06;70.93
19761;BME280;10039;42.632;23.408;2023-04-19T04:27:22;94518.66;;;11.05;70.91
19761;BME280;10039;42.632;23.408;2023-04-19T04:29:48;94540.16;;;11.14;70.80
19761;BME280;10039;42.632;23.408;2023-04-19T04:32:15;94541.94;;;11.05;71.68
19761;BME280;10039;42.632;23.408;2023-04-19T04:34:42;94506.94;;;10.74;71.77
19761;BME280;10039;42.632;23.408;2023-04-19T04:37:08;94511.53;;;10.74;71.80
19761;BME280;10039;42.632;23.408;2023-04-19T04:39:34;94506.81;;;10.65;71.79
19761;BME280;10039;42.632;23.408;2023-04-19T04:42:04;94533.34;;;10.85;72.16
19761;BME280;10039;42.632;23.408;2023-04-19T04:44:35;94529.53;;;10.70;72.37
19761;BME280;10039;42.632;23.408;2023-04-19T04:47:04;94529.53;;;10.70;72.88
19761;BME280;10039;42.632;23.408;2023-04-19T04:49:29;94521.69;;;10.50;72.64
19761;BME280;10039;42.632;23.408;2023-04-19T04:51:55;94553.72;;;10.79;72.41
19761;BME280;10039;42.632;23.408;2023-04-19T04:54:21;94550.56;;;10.68;72.64
19761;BME280;10039;42.632;23.408;2023-04-19T04:56:47;94550.06;;;10.73;72.45
19761;BME280;10039;42.632;23.408;2023-04-19T04:59:13;94522.34;;;10.54;72.52
19761;BME280;10039;42.632;23.408;2023-04-19T05:01:38;94525.34;;;10.56;72.56
19761;BME280;10039;42.632;23.408;2023-04-19T05:04:04;94513.25;;;10.52;72.99
19761;BME280;10039;42.632;23.408;2023-04-19T05:06:35;94531.59;;;10.50;73.29
19761;BME280;10039;42.632;23.408;2023-04-19T05:09:05;94546.84;;;10.65;73.73
19761;BME280;10039;42.632;23.408;2023-04-19T05:11:43;94535.13;;;10.47;73.36
19761;BME280;10039;42.632;23.408;2023-04-19T05:14:08;94514.75;;;10.53;73.23
19761;BME280;10039;42.632;23.408;2023-04-19T05:16:34;94553.22;;;10.84;73.17
19761;BME280;10039;42.632;23.408;2023-04-19T05:19:00;94504.41;;;10.55;72.54
19761;BME280;10039;42.632;23.408;2023-04-19T05:21:26;94555.88;;;10.84;73.05
19761;BME280;10039;42.632;23.408;2023-04-19T05:23:52;94535.09;;;10.63;72.59
19761;BME280;10039;42.632;23.408;2023-04-19T05:26:18;94546.50;;;10.92;72.06
19761;BME280;10039;42.632;23.408;2023-04-19T05:28:46;94528.59;;;10.64;72.38
19761;BME280;10039;42.632;23.408;2023-04-19T05:31:12;94503.31;;;10.52;72.06
19761;BME280;10039;42.632;23.408;2023-04-19T05:33:38;94556.34;;;10.95;72.57
19761;BME280;10039;42.632;23.408;2023-04-19T05:36:04;94537.69;;;10.79;72.61
19761;BME280;10039;42.632;23.408;2023-04-19T05:38:29;94571.09;;;10.99;72.20
19761;BME280;10039;42.632;23.408;2023-04-19T05:40:55;94573.28;;;10.88;72.30
19761;BME280;10039;42.632;23.408;2023-04-19T05:43:21;94537.56;;;10.70;72.46
19761;BME280;10039;42.632;23.408;2023-04-19T05:45:47;94545.56;;;10.70;72.79
19761;BME280;10039;42.632;23.408;2023-04-19T05:48:13;94562.59;;;10.88;73.15
19761;BME280;10039;42.632;23.408;2023-04-19T05:50:39;94550.69;;;10.93;72.86
19761;BME280;10039;42.632;23.408;2023-04-19T05:53:04;94568.66;;;11.05;72.65
19761;BME280;10039;42.632;23.408;2023-04-19T05:55:30;94559.97;;;11.01;72.31
19761;BME280;10039;42.632;23.408;2023-04-19T05:58:02;94565.97;;;11.05;72.41
19761;BME280;10039;42.632;23.408;2023-04-19T06:00:30;94523.38;;;10.73;72.16
19761;BME280;10039;42.632;23.408;2023-04-19T06:03:00;94556.34;;;10.95;72.48
19761;BME280;10039;42.632;23.408;2023-04-19T06:05:26;94529.06;;;10.87;72.77
19761;BME280;10039;42.632;23.408;2023-04-19T06:07:54;94535.47;;;10.77;72.73
19761;BME280;10039;42.632;23.408;2023-04-19T06:10:21;94576.88;;;10.98;73.33
19761;BME280;10039;42.632;23.408;2023-04-19T06:12:48;94566.97;;;11.11;72.74
19761;BME280;10039;42.632;23.408;2023-04-19T06:15:13;94570.56;;;11.04;72.87
19761;BME280;10039;42.632;23.408;2023-04-19T06:17:39;94541.91;;;10.92;72.76
19761;BME280;10039;42.632;23.408;2023-04-19T06:20:06;94549.94;;;11.05;72.66
19761;BME280;10039;42.632;23.408;2023-04-19T06:22:32;94551.81;;;11.20;72.61
19761;BME280;10039;42.632;23.408;2023-04-19T06:24:59;94573.75;;;11.27;72.78
19761;BME280;10039;42.632;23.408;2023-04-19T06:27:25;94571.03;;;11.15;72.66
19761;BME280;10039;42.632;23.408;2023-04-19T06:29:51;94525.22;;;10.88;72.62
19761;BME280;10039;42.632;23.408;2023-04-19T06:32:20;94558.09;;;11.13;72.20
19761;BME280;10039;42.632;23.408;2023-04-19T06:34:46;94572.25;;;11.26;72.50
19761;BME280;10039;42.632;23.408;2023-04-19T06:37:12;94554.81;;;11.22;72.76
19761;BME280;10039;42.632;23.408;2023-04-19T06:39:37;94530.66;;;11.13;72.63
19761;BME280;10039;42.632;23.408;2023-04-19T06:42:03;94535.13;;;11.16;72.11
19761;BME280;10039;42.632;23.408;2023-04-19T06:44:30;94540.38;;;11.19;71.45
19761;BME280;10039;42.632;23.408;2023-04-19T06:46:56;94553.75;;;11.32;72.37
19761;BME280;10039;42.632;23.408;2023-04-19T06:49:31;94575.47;;;11.46;71.68
19761;BME280;10039;42.632;23.408;2023-04-19T06:52:00;94552.91;;;11.35;71.24
19761;BME280;10039;42.632;23.408;2023-04-19T06:54:30;94556.16;;;11.55;71.38
19761;BME280;10039;42.632;23.408;2023-04-19T06:56:58;94577.47;;;11.83;71.03
19761;BME280;10039;42.632;23.408;2023-04-19T06:59:29;94561.09;;;11.81;70.14
19761;BME280;10039;42.632;23.408;2023-04-19T07:01:59;94581.53;;;12.00;70.22
19761;BME280;10039;42.632;23.408;2023-04-19T07:04:26;94542.59;;;11.74;70.16
19761;BME280;10039;42.632;23.408;2023-04-19T07:06:52;94557.78;;;11.77;70.15
19761;BME280;10039;42.632;23.408;2023-04-19T07:09:20;94549.34;;;11.79;70.01
19761;BME280;10039;42.632;23.408;2023-04-19T07:11:58;94567.81;;;11.98;69.30
19761;BME280;10039;42.632;23.408;2023-04-19T07:14:27;94583.44;;;12.12;68.56
19761;BME280;10039;42.632;23.408;2023-04-19T07:16:53;94580.03;;;12.24;69.23
19761;BME280;10039;42.632;23.408;2023-04-19T07:19:19;94573.25;;;12.32;69.50
19761;BME280;10039;42.632;23.408;2023-04-19T07:21:47;94573.56;;;12.34;68.75
19761;BME280;10039;42.632;23.408;2023-04-19T07:24:13;94540.66;;;12.12;68.96
19761;BME280;10039;42.632;23.408;2023-04-19T07:26:39;94573.25;;;12.32;68.68
19761;BME280;10039;42.632;23.408;2023-04-19T07:29:05;94581.84;;;12.61;67.09
19761;BME280;10039;42.632;23.408;2023-04-19T07:31:39;94570.84;;;12.59;67.61
19761;BME280;10039;42.632;23.408;2023-04-19T07:34:13;94569.91;;;12.53;66.84
19761;BME280;10039;42.632;23.408;2023-04-19T07:36:47;94564.38;;;12.69;67.34
19761;BME280;10039;42.632;23.408;2023-04-19T07:39:22;94554.00;;;12.71;66.49
19761;BME280;10039;42.632;23.408;2023-04-19T07:41:51;94590.31;;;13.06;66.41
19761;BME280;10039;42.632;23.408;2023-04-19T07:44:22;94581.97;;;13.04;66.30
19761;BME280;10039;42.632;23.408;2023-04-19T07:46:48;94530.06;;;12.76;66.42
19761;BME280;10039;42.632;23.408;2023-04-19T07:49:14;94575.84;;;13.25;65.82
19761;BME280;10039;42.632;23.408;2023-04-19T07:51:40;94582.28;;;13.27;65.39
19761;BME280;10039;42.632;23.408;2023-04-19T07:54:08;94537.59;;;13.03;64.96
19761;BME280;10039;42.632;23.408;2023-04-19T07:56:35;94567.16;;;13.33;65.36
19761;BME280;10039;42.632;23.408;2023-04-19T07:59:00;94574.72;;;13.35;65.48
19761;BME280;10039;42.632;23.408;2023-04-19T08:01:26;94573.47;;;13.48;64.77
19761;BME280;10039;42.632;23.408;2023-04-19T08:03:52;94574.84;;;13.52;64.83
19761;BME280;10039;42.632;23.408;2023-04-19T08:06:26;94568.88;;;13.48;64.66
19761;BME280;10039;42.632;23.408;2023-04-19T08:08:57;94549.03;;;13.46;64.85
19761;BME280;10039;42.632;23.408;2023-04-19T08:11:31;94561.09;;;13.72;63.78
19761;BME280;10039;42.632;23.408;2023-04-19T08:14:08;94553.50;;;13.70;63.07
19761;BME280;10039;42.632;23.408;2023-04-19T08:16:35;94534.44;;;13.47;62.97
19761;BME280;10039;42.632;23.408;2023-04-19T08:19:03;94567.81;;;13.76;63.83
19761;BME280;10039;42.632;23.408;2023-04-19T08:21:29;94542.97;;;13.85;63.47
19761;BME280;10039;42.632;23.408;2023-04-19T08:24:16;94573.69;;;14.23;63.37
19761;BME280;10039;42.632;23.408;2023-04-19T08:26:53;94552.41;;;13.98;62.93
19761;BME280;10039;42.632;23.408;2023-04-19T08:29:39;94545.19;;;13.86;62.56
19761;BME280;10039;42.632;23.408;2023-04-19T08:32:16;94558.44;;;14.11;62.97
19761;BME280;10039;42.632;23.408;2023-04-19T08:34:42;94562.59;;;14.12;62.93
19761;BME280;10039;42.632;23.408;2023-04-19T08:37:08;94561.22;;;14.08;62.89
19761;BME280;10039;42.632;23.408;2023-04-19T08:39:34;94540.13;;;13.79;62.24
19761;BME280;10039;42.632;23.408;2023-04-19T08:42:13;94536.25;;;13.80;61.98
19761;BME280;10039;42.632;23.408;2023-04-19T08:44:39;94559.16;;;14.12;62.78
19761;BME280;10039;42.632;23.408;2023-04-19T08:47:05;94543.28;;;14.26;62.39
19761;BME280;10039;42.632;23.408;2023-04-19T08:49:34;94519.63;;;14.03;62.56
19761;BME280;10039;42.632;23.408;2023-04-19T08:52:01;94549.44;;;14.45;61.35
19761;BME280;10039;42.632;23.408;2023-04-19T08:54:28;94552.88;;;14.45;61.72
19761;BME280;10039;42.632;23.408;2023-04-19T08:56:58;94540.59;;;14.26;61.33
19761;BME280;10039;42.632;23.408;2023-04-19T08:59:24;94551.03;;;14.24;60.77
19761;BME280;10039;42.632;23.408;2023-04-19T09:01:50;94537.16;;;14.17;62.15
19761;BME280;10039;42.632;23.408;2023-04-19T09:04:16;94528.28;;;14.07;61.97
19761;BME280;10039;42.632;23.408;2023-04-19T09:06:42;94557.34;;;14.48;61.41
19761;BME280;10039;42.632;23.408;2023-04-19T09:09:22;94536.72;;;14.27;60.97
19761;BME280;10039;42.632;23.408;2023-04-19T09:11:48;94545.38;;;14.31;61.46
19761;BME280;10039;42.632;23.408;2023-04-19T09:14:16;94520.91;;;14.29;61.10
19761;BME280;10039;42.632;23.408;2023-04-19T09:16:42;94537.03;;;14.38;61.53
19761;BME280;10039;42.632;23.408;2023-04-19T09:19:11;94506.00;;;14.28;60.83
19761;BME280;10039;42.632;23.408;2023-04-19T09:21:37;94502.88;;;14.39;60.68
19761;BME280;10039;42.632;23.408;2023-04-19T09:24:04;94527.25;;;14.71;60.69
19761;BME280;10039;42.632;23.408;2023-04-19T09:26:33;94508.09;;;14.51;59.73
19761;BME280;10039;42.632;23.408;2023-04-19T09:31:28;94560.06;;;14.75;59.83
19761;BME280;10039;42.632;23.408;2023-04-19T09:34:15;94519.75;;;14.48;59.48
19761;BME280;10039;42.632;23.408;2023-04-19T09:37:19;94522.28;;;14.43;60.04
19761;BME280;10039;42.632;23.408;2023-04-19T09:39:52;94532.16;;;14.63;59.78
19761;BME280;10039;42.632;23.408;2023-04-19T09:42:21;94506.63;;;14.50;58.53
19761;BME280;10039;42.632;23.408;2023-04-19T09:44:59;94505.72;;;14.53;59.16
19761;BME280;10039;42.632;23.408;2023-04-19T09:47:26;94506.78;;;14.56;58.23
19761;BME280;10039;42.632;23.408;2023-04-19T09:50:10;94533.94;;;14.75;58.27
19761;BME280;10039;42.632;23.408;2023-04-19T09:52:36;94500.22;;;14.74;58.99
19761;BME280;10039;42.632;23.408;2023-04-19T09:55:03;94510.81;;;15.05;58.41
19761;BME280;10039;42.632;23.408;2023-04-19T09:57:31;94530.50;;;15.11;57.80
19761;BME280;10039;42.632;23.408;2023-04-19T10:00:15;94498.56;;;14.95;57.55
19761;BME280;10039;42.632;23.408;2023-04-19T10:02:42;94503.34;;;15.09;57.74
19761;BME280;10039;42.632;23.408;2023-04-19T10:05:09;94513.44;;;15.23;58.05
19761;BME280;10039;42.632;23.408;2023-04-19T10:07:35;94501.69;;;15.11;57.16
19761;BME280;10039;42.632;23.408;2023-04-19T10:10:02;94487.47;;;15.20;56.88
19761;BME280;10039;42.632;23.408;2023-04-19T10:12:29;94511.38;;;15.36;56.35
19761;BME280;10039;42.632;23.408;2023-04-19T10:14:55;94504.50;;;15.26;56.68
19761;BME280;10039;42.632;23.408;2023-04-19T10:17:25;94472.28;;;14.99;57.08
19761;BME280;10039;42.632;23.408;2023-04-19T10:20:16;94484.19;;;15.34;56.49
19761;BME280;10039;42.632;23.408;2023-04-19T10:22:46;94470.75;;;15.34;57.49
19761;BME280;10039;42.632;23.408;2023-04-19T10:25:14;94510.78;;;15.41;56.37
19761;BME280;10039;42.632;23.408;2023-04-19T10:27:41;94493.75;;;15.35;55.87
19761;BME280;10039;42.632;23.408;2023-04-19T10:30:20;94474.38;;;15.04;56.33
19761;BME280;10039;42.632;23.408;2023-04-19T10:32:55;94475.28;;;14.92;56.77
19761;BME280;10039;42.632;23.408;2023-04-19T10:35:26;94503.31;;;15.36;57.23
19761;BME280;10039;42.632;23.408;2023-04-19T10:38:07;94445.13;;;14.88;55.37
19761;BME280;10039;42.632;23.408;2023-04-19T10:40:55;94486.75;;;15.19;56.16
19761;BME280;10039;42.632;23.408;2023-04-19T10:43:37;94443.03;;;14.83;56.82
19761;BME280;10039;42.632;23.408;2023-04-19T10:46:07;94480.28;;;15.26;56.46
19761;BME280;10039;42.632;23.408;2023-04-19T10:48:35;94443.63;;;14.87;57.64
19761;BME280;10039;42.632;23.408;2023-04-19T10:51:16;94480.00;;;15.15;56.99
19761;BME280;10039;42.632;23.408;2023-04-19T10:53:53;94482.44;;;15.13;56.22
19761;BME280;10039;42.632;23.408;2023-04-19T10:57:01;94477.34;;;15.06;56.02
19761;BME280;10039;42.632;23.408;2023-04-19T10:59:30;94444.53;;;14.84;56.19
19761;BME280;10039;42.632;23.408;2023-04-19T11:01:57;94417.09;;;14.80;56.38
19761;BME280;10039;42.632;23.408;2023-04-19T11:06:59;94446.31;;;14.87;55.16
19761;BME280;10039;42.632;23.408;2023-04-19T11:09:34;94436.75;;;14.86;55.23
19761;BME280;10039;42.632;23.408;2023-04-19T11:12:07;94452.25;;;15.09;55.76
19761;BME280;10039;42.632;23.408;2023-04-19T11:14:47;94445.88;;;14.88;54.63
19761;BME280;10039;42.632;23.408;2023-04-19T11:17:20;94458.38;;;15.00;54.55
19761;BME280;10039;42.632;23.408;2023-04-19T11:19:57;94454.97;;;15.09;54.43
19761;BME280;10039;42.632;23.408;2023-04-19T11:22:57;94435.00;;;14.74;54.93
19761;BME280;10039;42.632;23.408;2023-04-19T11:25:26;94446.16;;;14.99;54.97
19761;BME280;10039;42.632;23.408;2023-04-19T11:27:56;94412.16;;;14.78;54.63
19761;BME280;10039;42.632;23.408;2023-04-19T11:30:28;94410.06;;;14.73;54.53
19761;BME280;10039;42.632;23.408;2023-04-19T11:32:55;94444.34;;;15.05;54.74
19761;BME280;10039;42.632;23.408;2023-04-19T11:35:28;94405.41;;;15.01;54.24
19761;BME280;10039;42.632;23.408;2023-04-19T11:38:00;94425.03;;;15.34;54.40
19761;BME280;10039;42.632;23.408;2023-04-19T11:41:02;94421.75;;;15.30;52.49
19761;BME280;10039;42.632;23.408;2023-04-19T11:43:32;94401.44;;;15.20;52.02
19761;BME280;10039;42.632;23.408;2023-04-19T11:46:04;94437.09;;;15.38;53.54
19761;BME280;10039;42.632;23.408;2023-04-19T11:48:51;94420.69;;;15.36;52.61
19761;BME280;10039;42.632;23.408;2023-04-19T11:51:17;94402.94;;;15.30;51.71
19761;BME280;10039;42.632;23.408;2023-04-19T11:53:43;94426.75;;;15.46;51.59
19761;BME280;10039;42.632;23.408;2023-04-19T11:56:10;94419.63;;;15.43;51.35
19761;BME280;10039;42.632;23.408;2023-04-19T12:01:27;94426.13;;;15.60;51.58
19761;BME280;10039;42.632;23.408;2023-04-19T12:03:55;94409.16;;;15.45;50.76
19761;BME280;10039;42.632;23.408;2023-04-19T12:06:31;94384.97;;;15.45;51.67
19761;BME280;10039;42.632;23.408;2023-04-19T12:08:57;94403.56;;;15.57;49.98
19761;BME280;10039;42.632;23.408;2023-04-19T12:11:49;94408.78;;;15.61;49.97
19761;BME280;10039;42.632;23.408;2023-04-19T12:14:22;94409.81;;;15.86;50.38
19761;BME280;10039;42.632;23.408;2023-04-19T12:17:04;94442.38;;;15.97;49.85
19761;BME280;10039;42.632;23.408;2023-04-19T12:19:50;94426.16;;;15.83;48.06
19761;BME280;10039;42.632;23.408;2023-04-19T12:22:18;94408.03;;;15.83;48.27
19761;BME280;10039;42.632;23.408;2023-04-19T12:24:45;94395.78;;;15.82;48.81
19761;BME280;10039;42.632;23.408;2023-04-19T12:27:11;94412.34;;;16.13;49.99
19761;BME280;10039;42.632;23.408;2023-04-19T12:29:37;94412.66;;;15.92;54.71
19761;BME280;10039;42.632;23.408;2023-04-19T12:32:04;94401.78;;;15.77;53.80
19761;BME280;10039;42.632;23.408;2023-04-19T12:34:32;94395.56;;;15.72;53.69
19761;BME280;10039;42.632;23.408;2023-04-19T12:37:04;94414.00;;;15.87;54.48
19761;BME280;10039;42.632;23.408;2023-04-19T12:39:42;94416.69;;;15.87;55.49
19761;BME280;10039;42.632;23.408;2023-04-19T12:42:09;94403.88;;;15.82;54.18
19761;BME280;10039;42.632;23.408;2023-04-19T12:44:35;94379.03;;;15.32;54.86
19761;BME280;10039;42.632;23.408;2023-04-19T12:47:13;94392.75;;;15.25;55.50
19761;BME280;10039;42.632;23.408;2023-04-19T12:49:39;94393.66;;;15.22;54.38
19761;BME280;10039;42.632;23.408;2023-04-19T12:52:05;94400.84;;;15.25;55.30
19761;BME280;10039;42.632;23.408;2023-04-19T12:54:34;94387.16;;;15.05;55.18
19761;BME280;10039;42.632;23.408;2023-04-19T12:57:15;94419.66;;;15.16;55.37
19761;BME280;10039;42.632;23.408;2023-04-19T12:59:43;94403.81;;;15.36;56.04
19761;BME280;10039;42.632;23.408;2023-04-19T13:02:12;94435.03;;;15.74;55.64
19761;BME280;10039;42.632;23.408;2023-04-19T13:04:37;94406.38;;;15.63;55.42
19761;BME280;10039;42.632;23.408;2023-04-19T13:07:04;94384.31;;;15.50;55.32
19761;BME280;10039;42.632;23.408;2023-04-19T13:09:30;94400.16;;;15.48;54.87